Airfield :
LOGIN :

Register | Disclaimer

   EN    FR    IT 

 










Legend :    VFR   Marginal VFR   IFR   Intensive IFR   Very Intensive IFR
Visi :
Ceiling :
>= 8 km
>= 3000ft
5 to 8 km
1000 to 3000 ft
1500m to 5 km
500 to 1000 ft
800 to 1500m
200 to 500 ft
< 800m
< 200 ft
Symbols :   Thunderstorms  Fog  Heavy snow  Heavy precipitations  Wind > 20 kt
SIGMETs :     Misc.  Thunderstorms  Icing  Turbulence  Mountain Waves  Volcanic Ashes







- Airport Elevation : 13 ft
- IATA code : CEQ
- Download approach charts


LFMD - Cannes Mandelieu

CURRENT METAR :
  • 222330Z AUTO 36003KT 320V040 CAVOK 22/20 Q1017

EXPIRED METARs :
  • 222300Z AUTO 01003KT CAVOK 23/20 Q1017
  • 222230Z AUTO VRB02KT CAVOK 23/20 Q1018
  • 222200Z AUTO VRB01KT CAVOK 24/21 Q1017
  • 222130Z AUTO VRB03KT CAVOK 24/21 Q1017
  • 222100Z AUTO VRB02KT CAVOK 24/21 Q1017 NOSIG

TAF TAF LFMD
Valid from the 22 at 15:00 until the 23 at 15:00 UTC


221400Z 2215/2315 18008KT 9999 FEW025
TEMPO 2215/2216 FEW040TCU
BECMG 2216/2218 VRB02KT
BECMG 2300/2302 11005KT BKN012
ATIS : +33 4 93 48 73 23
No reported NOTAMs for that airfield.



MET'MAP, your aeronautical weather chart ! - Copyright ORBIFLY December 2007 - Disclaimer

ORBIFLY MET'MAP TEAM :

Programming & Development : Alexandra Zaïnal
Concept & Development : Baudouin d'Aumeries
Co-Development & Prog : Marc-Olivier Méhu
Technical & hardware support : Manuel Goepfert

Contact : metmap@orbifly.com




SOURCES & CREDITS :

   NOAA